sensor_id;sensor_type;location;lat;lon;timestamp;temperature;humidity
68578;SHT31;61668;45.388;11.784;2023-02-05T00:00:58;3.17;84.80
68578;SHT31;61668;45.388;11.784;2023-02-05T00:03:23;3.14;84.77
68578;SHT31;61668;45.388;11.784;2023-02-05T00:05:49;3.11;84.66
68578;SHT31;61668;45.388;11.784;2023-02-05T00:08:15;3.10;84.60
68578;SHT31;61668;45.388;11.784;2023-02-05T00:10:41;3.09;84.55
68578;SHT31;61668;45.388;11.784;2023-02-05T00:13:06;3.11;84.38
68578;SHT31;61668;45.388;11.784;2023-02-05T00:15:33;3.19;84.16
68578;SHT31;61668;45.388;11.784;2023-02-05T00:18:03;3.28;83.80
68578;SHT31;61668;45.388;11.784;2023-02-05T00:20:29;3.37;83.46
68578;SHT31;61668;45.388;11.784;2023-02-05T00:22:55;3.46;83.12
68578;SHT31;61668;45.388;11.784;2023-02-05T00:25:21;3.56;82.74
68578;SHT31;61668;45.388;11.784;2023-02-05T00:27:50;3.65;82.36
68578;SHT31;61668;45.388;11.784;2023-02-05T00:30:16;3.73;82.10
68578;SHT31;61668;45.388;11.784;2023-02-05T00:32:42;3.79;81.82
68578;SHT31;61668;45.388;11.784;2023-02-05T00:35:07;3.82;81.57
68578;SHT31;61668;45.388;11.784;2023-02-05T00:37:33;3.86;81.24
68578;SHT31;61668;45.388;11.784;2023-02-05T00:39:59;3.88;81.01
68578;SHT31;61668;45.388;11.784;2023-02-05T00:42:25;3.92;80.62
68578;SHT31;61668;45.388;11.784;2023-02-05T00:44:50;4.00;80.32
68578;SHT31;61668;45.388;11.784;2023-02-05T00:47:16;4.05;80.13
68578;SHT31;61668;45.388;11.784;2023-02-05T00:49:42;4.06;79.99
68578;SHT31;61668;45.388;11.784;2023-02-05T00:52:08;4.02;79.90
68578;SHT31;61668;45.388;11.784;2023-02-05T00:54:33;3.98;79.90
68578;SHT31;61668;45.388;11.784;2023-02-05T00:56:59;3.94;79.86
68578;SHT31;61668;45.388;11.784;2023-02-05T00:59:25;3.90;79.77
68578;SHT31;61668;45.388;11.784;2023-02-05T01:01:50;3.88;79.59
68578;SHT31;61668;45.388;11.784;2023-02-05T01:04:16;3.89;79.46
68578;SHT31;61668;45.388;11.784;2023-02-05T01:06:42;3.87;79.40
68578;SHT31;61668;45.388;11.784;2023-02-05T01:09:08;3.82;79.38
68578;SHT31;61668;45.388;11.784;2023-02-05T01:11:33;3.78;79.40
68578;SHT31;61668;45.388;11.784;2023-02-05T01:13:59;3.73;79.38
68578;SHT31;61668;45.388;11.784;2023-02-05T01:16:25;3.67;79.40
68578;SHT31;61668;45.388;11.784;2023-02-05T01:18:50;3.62;79.40
68578;SHT31;61668;45.388;11.784;2023-02-05T01:21:20;3.54;79.54
68578;SHT31;61668;45.388;11.784;2023-02-05T01:23:49;3.48;79.67
68578;SHT31;61668;45.388;11.784;2023-02-05T01:26:16;3.42;79.80
68578;SHT31;61668;45.388;11.784;2023-02-05T01:28:42;3.37;79.86
68578;SHT31;61668;45.388;11.784;2023-02-05T01:31:08;3.30;79.90
68578;SHT31;61668;45.388;11.784;2023-02-05T01:33:34;3.24;79.94
68578;SHT31;61668;45.388;11.784;2023-02-05T01:36:00;3.19;80.00
68578;SHT31;61668;45.388;11.784;2023-02-05T01:38:26;3.14;80.13
68578;SHT31;61668;45.388;11.784;2023-02-05T01:40:51;3.09;80.29
68578;SHT31;61668;45.388;11.784;2023-02-05T01:43:17;3.07;80.30
68578;SHT31;61668;45.388;11.784;2023-02-05T01:48:14;3.03;80.48
68578;SHT31;61668;45.388;11.784;2023-02-05T01:50:44;3.03;80.50
68578;SHT31;61668;45.388;11.784;2023-02-05T01:53:20;3.03;80.50
68578;SHT31;61668;45.388;11.784;2023-02-05T01:55:54;3.04;80.59
68578;SHT31;61668;45.388;11.784;2023-02-05T01:58:29;3.07;80.72
68578;SHT31;61668;45.388;11.784;2023-02-05T02:01:00;3.10;80.74
68578;SHT31;61668;45.388;11.784;2023-02-05T02:03:26;3.13;80.77
68578;SHT31;61668;45.388;11.784;2023-02-05T02:05:54;3.16;80.79
68578;SHT31;61668;45.388;11.784;2023-02-05T02:08:20;3.19;80.80
68578;SHT31;61668;45.388;11.784;2023-02-05T02:10:46;3.22;80.94
68578;SHT31;61668;45.388;11.784;2023-02-05T02:13:15;3.24;80.94
68578;SHT31;61668;45.388;11.784;2023-02-05T02:15:44;3.29;80.84
68578;SHT31;61668;45.388;11.784;2023-02-05T02:18:11;3.33;80.90
68578;SHT31;61668;45.388;11.784;2023-02-05T02:29:46;3.49;80.92
68578;SHT31;61668;45.388;11.784;2023-02-05T02:32:34;3.56;80.84
68578;SHT31;61668;45.388;11.784;2023-02-05T02:35:10;3.62;80.77
68578;SHT31;61668;45.388;11.784;2023-02-05T02:37:47;3.66;80.71
68578;SHT31;61668;45.388;11.784;2023-02-05T02:40:49;3.73;80.79
68578;SHT31;61668;45.388;11.784;2023-02-05T02:43:23;3.76;80.78
68578;SHT31;61668;45.388;11.784;2023-02-05T02:46:08;3.79;80.68
68578;SHT31;61668;45.388;11.784;2023-02-05T02:48:43;3.85;80.37
68578;SHT31;61668;45.388;11.784;2023-02-05T02:51:12;3.89;80.20
68578;SHT31;61668;45.388;11.784;2023-02-05T02:53:44;3.92;80.20
68578;SHT31;61668;45.388;11.784;2023-02-05T02:56:16;3.94;80.10
68578;SHT31;61668;45.388;11.784;2023-02-05T02:58:46;3.96;80.13
68578;SHT31;61668;45.388;11.784;2023-02-05T03:01:16;3.99;80.10
68578;SHT31;61668;45.388;11.784;2023-02-05T03:03:49;4.00;80.10
68578;SHT31;61668;45.388;11.784;2023-02-05T03:06:23;4.01;80.04
68578;SHT31;61668;45.388;11.784;2023-02-05T03:09:02;4.02;80.10
68578;SHT31;61668;45.388;11.784;2023-02-05T03:11:36;4.02;80.09
68578;SHT31;61668;45.388;11.784;2023-02-05T03:14:02;4.03;80.10
68578;SHT31;61668;45.388;11.784;2023-02-05T03:16:28;4.03;80.10
68578;SHT31;61668;45.388;11.784;2023-02-05T03:18:54;4.04;80.00
68578;SHT31;61668;45.388;11.784;2023-02-05T03:21:24;4.05;79.77
68578;SHT31;61668;45.388;11.784;2023-02-05T03:23:55;4.09;79.35
68578;SHT31;61668;45.388;11.784;2023-02-05T03:26:25;4.12;78.92
68578;SHT31;61668;45.388;11.784;2023-02-05T03:28:54;4.18;78.70
68578;SHT31;61668;45.388;11.784;2023-02-05T03:34:06;4.23;78.60
68578;SHT31;61668;45.388;11.784;2023-02-05T03:37:20;4.24;78.32
68578;SHT31;61668;45.388;11.784;2023-02-05T03:43:19;4.30;78.03
68578;SHT31;61668;45.388;11.784;2023-02-05T03:57:17;4.31;78.07
68578;SHT31;61668;45.388;11.784;2023-02-05T03:59:52;4.30;78.00
68578;SHT31;61668;45.388;11.784;2023-02-05T04:02:19;4.30;77.91
68578;SHT31;61668;45.388;11.784;2023-02-05T04:04:46;4.28;78.03
68578;SHT31;61668;45.388;11.784;2023-02-05T04:07:13;4.27;78.09
68578;SHT31;61668;45.388;11.784;2023-02-05T04:09:39;4.26;78.09
68578;SHT31;61668;45.388;11.784;2023-02-05T04:12:04;4.24;77.96
68578;SHT31;61668;45.388;11.784;2023-02-05T04:14:30;4.24;77.97
68578;SHT31;61668;45.388;11.784;2023-02-05T04:16:56;4.22;77.78
68578;SHT31;61668;45.388;11.784;2023-02-05T04:19:22;4.20;77.70
68578;SHT31;61668;45.388;11.784;2023-02-05T04:21:47;4.19;77.70
68578;SHT31;61668;45.388;11.784;2023-02-05T04:24:13;4.17;77.64
68578;SHT31;61668;45.388;11.784;2023-02-05T04:26:39;4.15;77.61
68578;SHT31;61668;45.388;11.784;2023-02-05T04:29:05;4.13;77.73
68578;SHT31;61668;45.388;11.784;2023-02-05T04:31:30;4.10;77.84
68578;SHT31;61668;45.388;11.784;2023-02-05T04:33:56;4.07;77.92
68578;SHT31;61668;45.388;11.784;2023-02-05T04:36:22;4.01;78.00
68578;SHT31;61668;45.388;11.784;2023-02-05T04:38:48;3.96;78.03
68578;SHT31;61668;45.388;11.784;2023-02-05T04:41:14;3.91;78.14
68578;SHT31;61668;45.388;11.784;2023-02-05T04:43:40;3.86;78.20
68578;SHT31;61668;45.388;11.784;2023-02-05T04:46:06;3.80;78.25
68578;SHT31;61668;45.388;11.784;2023-02-05T04:48:34;3.74;78.34
68578;SHT31;61668;45.388;11.784;2023-02-05T04:51:10;3.69;78.38
68578;SHT31;61668;45.388;11.784;2023-02-05T04:53:39;3.64;78.36
68578;SHT31;61668;45.388;11.784;2023-02-05T04:58:37;3.54;78.40
68578;SHT31;61668;45.388;11.784;2023-02-05T05:01:03;3.50;78.49
68578;SHT31;61668;45.388;11.784;2023-02-05T05:03:30;3.46;78.57
68578;SHT31;61668;45.388;11.784;2023-02-05T05:05:55;3.42;78.62
68578;SHT31;61668;45.388;11.784;2023-02-05T05:08:27;3.39;78.71
68578;SHT31;61668;45.388;11.784;2023-02-05T05:10:53;3.35;78.79
68578;SHT31;61668;45.388;11.784;2023-02-05T05:13:19;3.31;78.89
68578;SHT31;61668;45.388;11.784;2023-02-05T05:15:44;3.31;78.93
68578;SHT31;61668;45.388;11.784;2023-02-05T05:18:18;3.29;79.00
68578;SHT31;61668;45.388;11.784;2023-02-05T05:20:43;3.28;79.03
68578;SHT31;61668;45.388;11.784;2023-02-05T05:23:09;3.27;79.08
68578;SHT31;61668;45.388;11.784;2023-02-05T05:25:40;3.28;79.13
68578;SHT31;61668;45.388;11.784;2023-02-05T05:28:07;3.31;79.00
68578;SHT31;61668;45.388;11.784;2023-02-05T05:30:33;3.34;79.00
68578;SHT31;61668;45.388;11.784;2023-02-05T05:32:59;3.34;79.01
68578;SHT31;61668;45.388;11.784;2023-02-05T05:35:25;3.34;79.07
68578;SHT31;61668;45.388;11.784;2023-02-05T05:37:50;3.35;79.20
68578;SHT31;61668;45.388;11.784;2023-02-05T05:40:16;3.36;79.23
68578;SHT31;61668;45.388;11.784;2023-02-05T05:43:01;3.36;79.30
68578;SHT31;61668;45.388;11.784;2023-02-05T05:45:45;3.37;79.30
68578;SHT31;61668;45.388;11.784;2023-02-05T05:48:11;3.36;79.37
68578;SHT31;61668;45.388;11.784;2023-02-05T05:50:36;3.36;79.33
68578;SHT31;61668;45.388;11.784;2023-02-05T05:53:02;3.36;79.31
68578;SHT31;61668;45.388;11.784;2023-02-05T05:55:28;3.37;79.30
68578;SHT31;61668;45.388;11.784;2023-02-05T05:57:54;3.37;79.30
68578;SHT31;61668;45.388;11.784;2023-02-05T06:00:19;3.36;79.32
68578;SHT31;61668;45.388;11.784;2023-02-05T06:02:45;3.37;79.42
68578;SHT31;61668;45.388;11.784;2023-02-05T06:05:11;3.37;79.50
68578;SHT31;61668;45.388;11.784;2023-02-05T06:07:37;3.38;79.60
68578;SHT31;61668;45.388;11.784;2023-02-05T06:10:02;3.37;79.67
68578;SHT31;61668;45.388;11.784;2023-02-05T06:12:29;3.38;79.73
68578;SHT31;61668;45.388;11.784;2023-02-05T06:14:54;3.38;79.80
68578;SHT31;61668;45.388;11.784;2023-02-05T06:17:20;3.39;79.76
68578;SHT31;61668;45.388;11.784;2023-02-05T06:19:45;3.41;79.63
68578;SHT31;61668;45.388;11.784;2023-02-05T06:22:11;3.41;79.60
68578;SHT31;61668;45.388;11.784;2023-02-05T06:24:37;3.43;79.59
68578;SHT31;61668;45.388;11.784;2023-02-05T06:27:03;3.44;79.51
68578;SHT31;61668;45.388;11.784;2023-02-05T06:29:28;3.46;79.52
68578;SHT31;61668;45.388;11.784;2023-02-05T06:31:54;3.47;79.63
68578;SHT31;61668;45.388;11.784;2023-02-05T06:34:20;3.48;79.70
68578;SHT31;61668;45.388;11.784;2023-02-05T06:36:46;3.48;79.80
68578;SHT31;61668;45.388;11.784;2023-02-05T06:39:11;3.48;79.84
68578;SHT31;61668;45.388;11.784;2023-02-05T06:41:37;3.50;79.98
68578;SHT31;61668;45.388;11.784;2023-02-05T06:44:02;3.50;80.02
68578;SHT31;61668;45.388;11.784;2023-02-05T06:46:28;3.51;80.11
68578;SHT31;61668;45.388;11.784;2023-02-05T06:48:54;3.53;80.18
68578;SHT31;61668;45.388;11.784;2023-02-05T06:51:19;3.54;80.20
68578;SHT31;61668;45.388;11.784;2023-02-05T06:53:45;3.57;80.22
68578;SHT31;61668;45.388;11.784;2023-02-05T06:56:11;3.59;80.31
68578;SHT31;61668;45.388;11.784;2023-02-05T06:58:36;3.61;80.40
68578;SHT31;61668;45.388;11.784;2023-02-05T07:01:02;3.65;80.40
68578;SHT31;61668;45.388;11.784;2023-02-05T07:03:28;3.67;80.40
68578;SHT31;61668;45.388;11.784;2023-02-05T07:05:53;3.69;80.45
68578;SHT31;61668;45.388;11.784;2023-02-05T07:08:19;3.74;80.59
68578;SHT31;61668;45.388;11.784;2023-02-05T07:10:44;3.74;80.57
68578;SHT31;61668;45.388;11.784;2023-02-05T07:13:10;3.77;80.51
68578;SHT31;61668;45.388;11.784;2023-02-05T07:15:36;3.78;80.50
68578;SHT31;61668;45.388;11.784;2023-02-05T07:18:02;3.81;80.41
68578;SHT31;61668;45.388;11.784;2023-02-05T07:20:29;3.83;80.22
68578;SHT31;61668;45.388;11.784;2023-02-05T07:22:55;3.86;80.16
68578;SHT31;61668;45.388;11.784;2023-02-05T07:25:21;3.88;80.03
68578;SHT31;61668;45.388;11.784;2023-02-05T07:27:46;3.91;79.94
68578;SHT31;61668;45.388;11.784;2023-02-05T07:30:12;3.95;79.87
68578;SHT31;61668;45.388;11.784;2023-02-05T07:32:38;4.00;79.78
68578;SHT31;61668;45.388;11.784;2023-02-05T07:35:04;4.06;79.66
68578;SHT31;61668;45.388;11.784;2023-02-05T07:37:30;4.10;79.50
68578;SHT31;61668;45.388;11.784;2023-02-05T07:39:56;4.16;79.38
68578;SHT31;61668;45.388;11.784;2023-02-05T07:42:21;4.20;79.13
68578;SHT31;61668;45.388;11.784;2023-02-05T07:44:47;4.24;79.13
68578;SHT31;61668;45.388;11.784;2023-02-05T07:47:12;4.30;79.13
68578;SHT31;61668;45.388;11.784;2023-02-05T07:49:38;4.36;79.10
68578;SHT31;61668;45.388;11.784;2023-02-05T07:52:04;4.42;79.10
68578;SHT31;61668;45.388;11.784;2023-02-05T07:54:30;4.49;79.09
68578;SHT31;61668;45.388;11.784;2023-02-05T07:56:56;4.55;79.02
68578;SHT31;61668;45.388;11.784;2023-02-05T07:59:24;4.64;78.90
68578;SHT31;61668;45.388;11.784;2023-02-05T08:01:49;4.71;78.87
68578;SHT31;61668;45.388;11.784;2023-02-05T08:04:15;4.77;78.92
68578;SHT31;61668;45.388;11.784;2023-02-05T08:06:41;4.85;79.00
68578;SHT31;61668;45.388;11.784;2023-02-05T08:09:07;4.93;79.08
68578;SHT31;61668;45.388;11.784;2023-02-05T08:11:33;5.03;79.24
68578;SHT31;61668;45.388;11.784;2023-02-05T08:13:59;5.11;79.24
68578;SHT31;61668;45.388;11.784;2023-02-05T08:16:25;5.20;79.11
68578;SHT31;61668;45.388;11.784;2023-02-05T08:18:50;5.29;79.03
68578;SHT31;61668;45.388;11.784;2023-02-05T08:21:16;5.37;78.97
68578;SHT31;61668;45.388;11.784;2023-02-05T08:23:43;5.46;78.99
68578;SHT31;61668;45.388;11.784;2023-02-05T08:26:09;5.52;78.97
68578;SHT31;61668;45.388;11.784;2023-02-05T08:28:35;5.59;78.90
68578;SHT31;61668;45.388;11.784;2023-02-05T08:31:00;5.67;78.81
68578;SHT31;61668;45.388;11.784;2023-02-05T08:33:26;5.75;78.68
68578;SHT31;61668;45.388;11.784;2023-02-05T08:35:51;5.83;78.42
68578;SHT31;61668;45.388;11.784;2023-02-05T08:38:17;5.91;78.13
68578;SHT31;61668;45.388;11.784;2023-02-05T08:40:43;5.99;77.91
68578;SHT31;61668;45.388;11.784;2023-02-05T08:43:08;6.08;77.56
68578;SHT31;61668;45.388;11.784;2023-02-05T08:45:34;6.15;77.14
68578;SHT31;61668;45.388;11.784;2023-02-05T08:47:59;6.24;76.34
68578;SHT31;61668;45.388;11.784;2023-02-05T08:50:25;6.31;75.85
68578;SHT31;61668;45.388;11.784;2023-02-05T08:52:51;6.39;75.19
68578;SHT31;61668;45.388;11.784;2023-02-05T08:55:16;6.45;74.92
68578;SHT31;61668;45.388;11.784;2023-02-05T08:57:42;6.52;74.60
68578;SHT31;61668;45.388;11.784;2023-02-05T09:00:09;6.59;74.25
68578;SHT31;61668;45.388;11.784;2023-02-05T09:02:36;6.65;73.62
68578;SHT31;61668;45.388;11.784;2023-02-05T09:05:01;6.70;73.02
68578;SHT31;61668;45.388;11.784;2023-02-05T09:07:27;6.75;72.98
68578;SHT31;61668;45.388;11.784;2023-02-05T09:09:52;6.81;72.69
68578;SHT31;61668;45.388;11.784;2023-02-05T09:12:18;6.84;71.93
68578;SHT31;61668;45.388;11.784;2023-02-05T09:14:43;6.89;71.74
68578;SHT31;61668;45.388;11.784;2023-02-05T09:17:09;6.90;71.27
68578;SHT31;61668;45.388;11.784;2023-02-05T09:19:38;6.92;71.13
68578;SHT31;61668;45.388;11.784;2023-02-05T09:22:05;6.94;71.25
68578;SHT31;61668;45.388;11.784;2023-02-05T09:24:32;6.96;71.15
68578;SHT31;61668;45.388;11.784;2023-02-05T09:27:00;7.00;71.09
68578;SHT31;61668;45.388;11.784;2023-02-05T09:29:26;7.03;70.86
68578;SHT31;61668;45.388;11.784;2023-02-05T09:31:53;7.06;70.33
68578;SHT31;61668;45.388;11.784;2023-02-05T09:34:19;7.08;70.18
68578;SHT31;61668;45.388;11.784;2023-02-05T09:36:45;7.11;70.27
68578;SHT31;61668;45.388;11.784;2023-02-05T09:39:10;7.14;70.06
68578;SHT31;61668;45.388;11.784;2023-02-05T09:47:34;7.20;69.23
68578;SHT31;61668;45.388;11.784;2023-02-05T09:50:17;7.20;68.83
68578;SHT31;61668;45.388;11.784;2023-02-05T09:52:53;7.20;68.34
68578;SHT31;61668;45.388;11.784;2023-02-05T09:55:30;7.20;68.18
68578;SHT31;61668;45.388;11.784;2023-02-05T09:58:06;7.20;67.76
68578;SHT31;61668;45.388;11.784;2023-02-05T10:00:47;7.21;67.39
68578;SHT31;61668;45.388;11.784;2023-02-05T10:05:59;7.24;66.64
68578;SHT31;61668;45.388;11.784;2023-02-05T10:20:42;7.36;66.26
68578;SHT31;61668;45.388;11.784;2023-02-05T10:23:22;7.37;65.82
68578;SHT31;61668;45.388;11.784;2023-02-05T10:26:09;7.41;65.99
68578;SHT31;61668;45.388;11.784;2023-02-05T10:36:40;7.53;65.41
68578;SHT31;61668;45.388;11.784;2023-02-05T10:39:12;7.55;64.97
68578;SHT31;61668;45.388;11.784;2023-02-05T10:41:44;7.57;64.67
68578;SHT31;61668;45.388;11.784;2023-02-05T10:44:41;7.59;64.48
68578;SHT31;61668;45.388;11.784;2023-02-05T10:47:22;7.63;64.60
68578;SHT31;61668;45.388;11.784;2023-02-05T10:51:09;7.67;64.60
68578;SHT31;61668;45.388;11.784;2023-02-05T10:53:28;7.71;64.54
68578;SHT31;61668;45.388;11.784;2023-02-05T10:55:55;7.75;64.56
68578;SHT31;61668;45.388;11.784;2023-02-05T11:01:17;7.86;64.48
68578;SHT31;61668;45.388;11.784;2023-02-05T11:03:52;7.91;64.46
68578;SHT31;61668;45.388;11.784;2023-02-05T11:06:35;7.96;64.09
68578;SHT31;61668;45.388;11.784;2023-02-05T11:11:51;8.05;63.68
68578;SHT31;61668;45.388;11.784;2023-02-05T11:14:43;8.09;63.36
68578;SHT31;61668;45.388;11.784;2023-02-05T11:17:18;8.12;63.42
68578;SHT31;61668;45.388;11.784;2023-02-05T11:19:53;8.15;63.44
68578;SHT31;61668;45.388;11.784;2023-02-05T11:22:40;8.18;63.43
68578;SHT31;61668;45.388;11.784;2023-02-05T11:27:33;8.24;63.36
68578;SHT31;61668;45.388;11.784;2023-02-05T11:30:22;8.26;63.41
68578;SHT31;61668;45.388;11.784;2023-02-05T11:32:58;8.28;63.13
68578;SHT31;61668;45.388;11.784;2023-02-05T11:35:54;8.30;62.47
68578;SHT31;61668;45.388;11.784;2023-02-05T11:38:24;8.29;62.80
68578;SHT31;61668;45.388;11.784;2023-02-05T11:40:56;8.30;62.70
68578;SHT31;61668;45.388;11.784;2023-02-05T11:43:32;8.32;62.92
68578;SHT31;61668;45.388;11.784;2023-02-05T11:46:02;8.34;62.94
68578;SHT31;61668;45.388;11.784;2023-02-05T11:48:35;8.33;63.06
68578;SHT31;61668;45.388;11.784;2023-02-05T11:51:06;8.34;63.26
68578;SHT31;61668;45.388;11.784;2023-02-05T11:57:01;8.29;62.54
68578;SHT31;61668;45.388;11.784;2023-02-05T12:02:37;8.19;62.67
68578;SHT31;61668;45.388;11.784;2023-02-05T12:19:01;8.03;63.51
68578;SHT31;61668;45.388;11.784;2023-02-05T12:22:36;7.98;63.84
68578;SHT31;61668;45.388;11.784;2023-02-05T12:45:07;7.43;63.29
68578;SHT31;61668;45.388;11.784;2023-02-05T12:48:07;7.37;63.54
68578;SHT31;61668;45.388;11.784;2023-02-05T12:53:46;7.28;63.98
68578;SHT31;61668;45.388;11.784;2023-02-05T13:10:58;7.11;65.06
68578;SHT31;61668;45.388;11.784;2023-02-05T13:13:30;7.09;64.87
68578;SHT31;61668;45.388;11.784;2023-02-05T13:16:11;7.08;64.88
68578;SHT31;61668;45.388;11.784;2023-02-05T13:18:46;7.07;64.68
68578;SHT31;61668;45.388;11.784;2023-02-05T13:21:24;7.06;64.65
68578;SHT31;61668;45.388;11.784;2023-02-05T13:24:25;7.07;64.83
68578;SHT31;61668;45.388;11.784;2023-02-05T13:27:18;7.09;64.94
68578;SHT31;61668;45.388;11.784;2023-02-05T13:30:10;7.12;65.08
68578;SHT31;61668;45.388;11.784;2023-02-05T13:32:47;7.15;65.09
68578;SHT31;61668;45.388;11.784;2023-02-05T13:35:17;7.19;64.98
68578;SHT31;61668;45.388;11.784;2023-02-05T13:46:52;7.24;65.17
68578;SHT31;61668;45.388;11.784;2023-02-05T13:52:31;7.27;65.45
68578;SHT31;61668;45.388;11.784;2023-02-05T14:03:51;7.26;64.50
68578;SHT31;61668;45.388;11.784;2023-02-05T14:06:40;7.25;64.39
68578;SHT31;61668;45.388;11.784;2023-02-05T14:09:08;7.26;64.21
68578;SHT31;61668;45.388;11.784;2023-02-05T14:11:55;7.26;64.38
68578;SHT31;61668;45.388;11.784;2023-02-05T14:14:45;7.26;64.32
68578;SHT31;61668;45.388;11.784;2023-02-05T14:17:51;7.27;64.27
68578;SHT31;61668;45.388;11.784;2023-02-05T14:28:03;7.26;64.51
68578;SHT31;61668;45.388;11.784;2023-02-05T14:30:57;7.26;64.22
68578;SHT31;61668;45.388;11.784;2023-02-05T14:36:58;7.24;63.71
68578;SHT31;61668;45.388;11.784;2023-02-05T14:39:33;7.21;63.80
68578;SHT31;61668;45.388;11.784;2023-02-05T14:42:01;7.18;63.83
68578;SHT31;61668;45.388;11.784;2023-02-05T14:47:06;7.11;63.55
68578;SHT31;61668;45.388;11.784;2023-02-05T14:49:44;7.06;63.82
68578;SHT31;61668;45.388;11.784;2023-02-05T14:52:26;7.00;64.04
68578;SHT31;61668;45.388;11.784;2023-02-05T15:00:34;6.87;64.24
68578;SHT31;61668;45.388;11.784;2023-02-05T15:06:07;6.80;64.19
68578;SHT31;61668;45.388;11.784;2023-02-05T15:08:41;6.77;64.49
68578;SHT31;61668;45.388;11.784;2023-02-05T15:16:46;6.73;64.74
68578;SHT31;61668;45.388;11.784;2023-02-05T15:22:46;6.65;64.70
68578;SHT31;61668;45.388;11.784;2023-02-05T15:28:35;6.62;65.05
68578;SHT31;61668;45.388;11.784;2023-02-05T15:31:17;6.59;64.76
68578;SHT31;61668;45.388;11.784;2023-02-05T15:33:57;6.57;64.83
68578;SHT31;61668;45.388;11.784;2023-02-05T15:36:55;6.54;64.93
68578;SHT31;61668;45.388;11.784;2023-02-05T15:42:31;6.51;65.30
68578;SHT31;61668;45.388;11.784;2023-02-05T15:45:15;6.50;65.50
68578;SHT31;61668;45.388;11.784;2023-02-05T15:50:27;6.44;65.71
68578;SHT31;61668;45.388;11.784;2023-02-05T15:52:54;6.41;65.75
68578;SHT31;61668;45.388;11.784;2023-02-05T15:55:21;6.39;65.87
68578;SHT31;61668;45.388;11.784;2023-02-05T15:57:49;6.37;65.82
68578;SHT31;61668;45.388;11.784;2023-02-05T16:00:21;6.34;65.91
68578;SHT31;61668;45.388;11.784;2023-02-05T16:02:55;6.33;66.04
68578;SHT31;61668;45.388;11.784;2023-02-05T16:05:25;6.33;66.03
68578;SHT31;61668;45.388;11.784;2023-02-05T16:07:53;6.30;66.05
68578;SHT31;61668;45.388;11.784;2023-02-05T16:10:22;6.28;66.20
68578;SHT31;61668;45.388;11.784;2023-02-05T16:18:37;6.21;66.56
68578;SHT31;61668;45.388;11.784;2023-02-05T16:21:24;6.19;66.67
68578;SHT31;61668;45.388;11.784;2023-02-05T16:23:59;6.14;66.71
68578;SHT31;61668;45.388;11.784;2023-02-05T16:26:36;6.12;66.86
68578;SHT31;61668;45.388;11.784;2023-02-05T16:29:14;6.10;66.96
68578;SHT31;61668;45.388;11.784;2023-02-05T16:31:54;6.07;67.06
68578;SHT31;61668;45.388;11.784;2023-02-05T16:34:28;6.03;67.20
68578;SHT31;61668;45.388;11.784;2023-02-05T16:36:56;6.01;67.24
68578;SHT31;61668;45.388;11.784;2023-02-05T16:39:28;5.99;67.23
68578;SHT31;61668;45.388;11.784;2023-02-05T16:45:05;5.95;67.40
68578;SHT31;61668;45.388;11.784;2023-02-05T16:47:51;5.93;67.45
68578;SHT31;61668;45.388;11.784;2023-02-05T16:50:53;5.90;67.55
68578;SHT31;61668;45.388;11.784;2023-02-05T16:53:27;5.89;67.71
68578;SHT31;61668;45.388;11.784;2023-02-05T16:56:00;5.88;67.80
68578;SHT31;61668;45.388;11.784;2023-02-05T16:58:55;5.86;67.87
68578;SHT31;61668;45.388;11.784;2023-02-05T17:03:53;5.83;67.96
68578;SHT31;61668;45.388;11.784;2023-02-05T17:06:20;5.82;68.03
68578;SHT31;61668;45.388;11.784;2023-02-05T17:08:48;5.80;68.09
68578;SHT31;61668;45.388;11.784;2023-02-05T17:11:36;5.78;68.13
68578;SHT31;61668;45.388;11.784;2023-02-05T17:17:00;5.76;68.22
68578;SHT31;61668;45.388;11.784;2023-02-05T17:25:27;5.73;68.27
68578;SHT31;61668;45.388;11.784;2023-02-05T17:28:14;5.72;68.29
68578;SHT31;61668;45.388;11.784;2023-02-05T17:30:49;5.72;68.30
68578;SHT31;61668;45.388;11.784;2023-02-05T17:33:22;5.72;68.33
68578;SHT31;61668;45.388;11.784;2023-02-05T17:35:50;5.71;68.30
68578;SHT31;61668;45.388;11.784;2023-02-05T17:38:16;5.71;68.25
68578;SHT31;61668;45.388;11.784;2023-02-05T17:40:44;5.71;68.32
68578;SHT31;61668;45.388;11.784;2023-02-05T17:43:10;5.70;68.36
68578;SHT31;61668;45.388;11.784;2023-02-05T17:45:37;5.70;68.32
68578;SHT31;61668;45.388;11.784;2023-02-05T17:48:05;5.70;68.30
68578;SHT31;61668;45.388;11.784;2023-02-05T17:50:32;5.69;68.37
68578;SHT31;61668;45.388;11.784;2023-02-05T17:53:00;5.70;68.46
68578;SHT31;61668;45.388;11.784;2023-02-05T17:55:27;5.69;68.49
68578;SHT31;61668;45.388;11.784;2023-02-05T17:57:54;5.68;68.51
68578;SHT31;61668;45.388;11.784;2023-02-05T18:00:21;5.69;68.56
68578;SHT31;61668;45.388;11.784;2023-02-05T18:02:50;5.68;68.61
68578;SHT31;61668;45.388;11.784;2023-02-05T18:05:16;5.68;68.69
68578;SHT31;61668;45.388;11.784;2023-02-05T18:10:18;5.68;68.62
68578;SHT31;61668;45.388;11.784;2023-02-05T18:12:47;5.67;68.60
68578;SHT31;61668;45.388;11.784;2023-02-05T18:15:14;5.67;68.59
68578;SHT31;61668;45.388;11.784;2023-02-05T18:17:40;5.67;68.59
68578;SHT31;61668;45.388;11.784;2023-02-05T18:20:06;5.67;68.60
68578;SHT31;61668;45.388;11.784;2023-02-05T18:22:33;5.66;68.62
68578;SHT31;61668;45.388;11.784;2023-02-05T18:24:59;5.64;68.70
68578;SHT31;61668;45.388;11.784;2023-02-05T18:27:26;5.65;68.70
68578;SHT31;61668;45.388;11.784;2023-02-05T18:29:52;5.64;68.79
68578;SHT31;61668;45.388;11.784;2023-02-05T18:32:18;5.64;68.87
68578;SHT31;61668;45.388;11.784;2023-02-05T18:34:44;5.63;69.12
68578;SHT31;61668;45.388;11.784;2023-02-05T18:37:10;5.62;69.22
68578;SHT31;61668;45.388;11.784;2023-02-05T18:39:41;5.62;69.34
68578;SHT31;61668;45.388;11.784;2023-02-05T18:42:07;5.61;69.48
68578;SHT31;61668;45.388;11.784;2023-02-05T18:44:33;5.61;69.50
68578;SHT31;61668;45.388;11.784;2023-02-05T18:46:59;5.59;69.55
68578;SHT31;61668;45.388;11.784;2023-02-05T18:49:26;5.59;69.62
68578;SHT31;61668;45.388;11.784;2023-02-05T18:51:52;5.58;69.71
68578;SHT31;61668;45.388;11.784;2023-02-05T18:54:18;5.56;69.79
68578;SHT31;61668;45.388;11.784;2023-02-05T18:56:43;5.55;69.74
68578;SHT31;61668;45.388;11.784;2023-02-05T18:59:11;5.54;69.84
68578;SHT31;61668;45.388;11.784;2023-02-05T19:01:40;5.53;69.94
68578;SHT31;61668;45.388;11.784;2023-02-05T19:04:13;5.51;70.07
68578;SHT31;61668;45.388;11.784;2023-02-05T19:06:40;5.49;70.07
68578;SHT31;61668;45.388;11.784;2023-02-05T19:09:08;5.48;70.10
68578;SHT31;61668;45.388;11.784;2023-02-05T19:11:35;5.47;70.20
68578;SHT31;61668;45.388;11.784;2023-02-05T19:14:05;5.46;70.26
68578;SHT31;61668;45.388;11.784;2023-02-05T19:16:35;5.43;70.40
68578;SHT31;61668;45.388;11.784;2023-02-05T19:19:01;5.41;70.51
68578;SHT31;61668;45.388;11.784;2023-02-05T19:21:28;5.38;70.60